Time,TemperatureF,DewpointF,PressureIn,WindDirection,WindDirectionDegrees,WindSpeedMPH,WindSpeedGustMPH,Humidity,HourlyPrecipIn,Conditions,Clouds,dailyrainin,SolarRadiationWatts/m^2,SoftwareType,DateUTC
2013-09-13 00:00:00,60.0,46.0,-100.00,West,270,4.0,-999.0,59,-99.99,,,-99.99,0.000000,,2013-09-13 04:00:00,
2013-09-13 00:44:00,60.0,46.0,-100.00,West,270,4.0,-999.0,59,-99.99,,,-99.99,0.000000,,2013-09-13 04:44:00,
2013-09-13 00:54:00,60.0,46.0,-100.00,West,270,4.0,-999.0,59,-99.99,,,-99.99,0.000000,,2013-09-13 04:54:00,
2013-09-13 01:00:00,58.0,44.0,-100.00,West,270,5.0,-999.0,60,-99.99,,,-99.99,0.000000,,2013-09-13 05:00:00,
2013-09-13 01:43:00,58.0,44.0,-100.00,West,270,5.0,-999.0,60,-99.99,,,-99.99,0.000000,,2013-09-13 05:43:00,
2013-09-13 01:53:00,58.0,44.0,-100.00,West,270,5.0,-999.0,60,-99.99,,,-99.99,0.000000,,2013-09-13 05:53:00,
2013-09-13 03:00:00,55.0,44.0,-100.00,West,270,3.0,-999.0,66,-99.99,,,-99.99,0.000000,,2013-09-13 07:00:00,
2013-09-13 03:43:00,55.0,44.0,-100.00,West,270,3.0,-999.0,66,-99.99,,,-99.99,0.000000,,2013-09-13 07:43:00,
2013-09-13 03:52:00,55.0,44.0,-100.00,West,270,3.0,-999.0,66,-99.99,,,-99.99,0.000000,,2013-09-13 07:52:00,
2013-09-13 05:00:00,53.0,42.0,-100.00,West,270,3.0,-999.0,66,-99.99,,,-99.99,0.000000,,2013-09-13 09:00:00,
2013-09-13 05:43:00,53.0,42.0,-100.00,West,270,3.0,-999.0,66,-99.99,,,-99.99,0.000000,,2013-09-13 09:43:00,
2013-09-13 05:54:00,53.0,42.0,-100.00,West,270,3.0,-999.0,66,-99.99,,,-99.99,0.000000,,2013-09-13 09:54:00,
2013-09-13 06:00:00,52.0,40.0,-100.00,West,270,3.0,-999.0,62,-99.99,,,-99.99,0.000000,,2013-09-13 10:00:00,
2013-09-13 06:42:00,52.0,40.0,-100.00,West,270,3.0,-999.0,62,-99.99,,,-99.99,0.000000,,2013-09-13 10:42:00,
2013-09-13 06:53:00,52.0,40.0,-100.00,West,270,3.0,-999.0,62,-99.99,,,-99.99,0.000000,,2013-09-13 10:53:00,
2013-09-13 07:00:00,53.0,40.0,-100.00,West,270,4.0,-999.0,61,-99.99,,,-99.99,0.000000,,2013-09-13 11:00:00,
2013-09-13 07:43:00,53.0,40.0,-100.00,West,270,4.0,-999.0,61,-99.99,,,-99.99,0.000000,,2013-09-13 11:43:00,
2013-09-13 07:52:00,53.0,40.0,-100.00,West,270,4.0,-999.0,61,-99.99,,,-99.99,0.000000,,2013-09-13 11:52:00,
2013-09-13 08:00:00,53.0,41.0,-100.00,West,270,4.0,-999.0,64,-99.99,,,-99.99,13.920000,,2013-09-13 12:00:00,
2013-09-13 08:42:00,53.0,41.0,-100.00,West,270,4.0,-999.0,64,-99.99,,,-99.99,13.920000,,2013-09-13 12:42:00,
2013-09-13 08:52:00,53.0,41.0,-100.00,West,270,4.0,-999.0,64,-99.99,,,-99.99,13.920000,,2013-09-13 12:52:00,
2013-09-13 09:00:00,54.0,42.0,-100.00,West,270,4.0,-999.0,62,-99.99,,,-99.99,122.959999,,2013-09-13 13:00:00,
2013-09-13 09:42:00,54.0,42.0,-100.00,West,270,4.0,-999.0,62,-99.99,,,-99.99,122.959999,,2013-09-13 13:42:00,
2013-09-13 09:52:00,54.0,42.0,-100.00,West,270,4.0,-999.0,62,-99.99,,,-99.99,122.959999,,2013-09-13 13:52:00,
2013-09-13 10:00:00,56.0,42.0,-100.00,West,270,5.0,-999.0,57,-99.99,,,-99.99,263.320007,,2013-09-13 14:00:00,
2013-09-13 10:42:00,56.0,42.0,-100.00,West,270,5.0,-999.0,57,-99.99,,,-99.99,263.320007,,2013-09-13 14:42:00,
2013-09-13 10:52:00,56.0,42.0,-100.00,West,270,5.0,-999.0,57,-99.99,,,-99.99,263.320007,,2013-09-13 14:52:00,
2013-09-13 13:00:00,59.0,38.0,-100.00,SW,225,8.0,-999.0,46,-99.99,,,-99.99,584.640015,,2013-09-13 17:00:00,
2013-09-13 13:44:00,59.0,38.0,-100.00,SW,225,8.0,-999.0,46,-99.99,,,-99.99,584.640015,,2013-09-13 17:44:00,
2013-09-13 13:53:00,59.0,38.0,-100.00,SW,225,8.0,-999.0,46,-99.99,,,-99.99,584.640015,,2013-09-13 17:53:00,
2013-09-13 15:00:00,60.0,37.0,-100.00,SSW,202,8.0,-999.0,43,-99.99,,,-99.99,621.760010,,2013-09-13 19:00:00,
2013-09-13 15:43:00,60.0,37.0,-100.00,SSW,202,8.0,-999.0,43,-99.99,,,-99.99,621.760010,,2013-09-13 19:43:00,
2013-09-13 15:52:00,60.0,37.0,-100.00,SSW,202,8.0,-999.0,43,-99.99,,,-99.99,621.760010,,2013-09-13 19:52:00,
2013-09-13 16:00:00,61.0,38.0,-100.00,SW,225,6.0,-999.0,42,-99.99,,,-99.99,561.440002,,2013-09-13 20:00:00,
2013-09-13 16:43:00,61.0,38.0,-100.00,SW,225,6.0,-999.0,42,-99.99,,,-99.99,561.440002,,2013-09-13 20:43:00,
2013-09-13 16:52:00,61.0,38.0,-100.00,SW,225,6.0,-999.0,42,-99.99,,,-99.99,561.440002,,2013-09-13 20:52:00,
2013-09-13 17:00:00,61.0,38.0,-100.00,SSW,202,7.0,-999.0,43,-99.99,,,-99.99,457.040009,,2013-09-13 21:00:00,
2013-09-13 17:44:00,61.0,38.0,-100.00,SSW,202,7.0,-999.0,43,-99.99,,,-99.99,457.040009,,2013-09-13 21:44:00,
2013-09-13 17:54:00,61.0,38.0,-100.00,SSW,202,7.0,-999.0,43,-99.99,,,-99.99,457.040009,,2013-09-13 21:54:00,
2013-09-13 18:00:00,61.0,39.0,-100.00,SW,225,6.0,-999.0,44,-99.99,,,-99.99,325.959991,,2013-09-13 22:00:00,
2013-09-13 18:43:00,61.0,39.0,-100.00,SW,225,6.0,-999.0,44,-99.99,,,-99.99,325.959991,,2013-09-13 22:43:00,
2013-09-13 18:53:00,61.0,39.0,-100.00,SW,225,6.0,-999.0,44,-99.99,,,-99.99,325.959991,,2013-09-13 22:53:00,
2013-09-13 19:00:00,60.0,40.0,-100.00,SW,225,5.0,-999.0,48,-99.99,,,-99.99,178.639999,,2013-09-13 23:00:00,
2013-09-13 19:43:00,60.0,40.0,-100.00,SW,225,5.0,-999.0,48,-99.99,,,-99.99,178.639999,,2013-09-13 23:43:00,
2013-09-13 19:53:00,60.0,40.0,-100.00,SW,225,5.0,-999.0,48,-99.99,,,-99.99,178.639999,,2013-09-13 23:53:00,
2013-09-13 20:00:00,58.0,42.0,-100.00,SW,225,3.0,-999.0,55,-99.99,,,-99.99,44.080002,,2013-09-14 00:00:00,
2013-09-13 20:42:00,58.0,42.0,-100.00,SW,225,3.0,-999.0,55,-99.99,,,-99.99,44.080002,,2013-09-14 00:42:00,
2013-09-13 20:52:00,58.0,42.0,-100.00,SW,225,3.0,-999.0,55,-99.99,,,-99.99,44.080002,,2013-09-14 00:52:00,
2013-09-13 22:00:00,51.0,44.0,-100.00,West,270,0.0,-999.0,76,-99.99,,,-99.99,0.000000,,2013-09-14 02:00:00,
2013-09-13 22:42:00,51.0,44.0,-100.00,West,270,0.0,-999.0,76,-99.99,,,-99.99,0.000000,,2013-09-14 02:42:00,
2013-09-13 22:52:00,51.0,44.0,-100.00,West,270,0.0,-999.0,76,-99.99,,,-99.99,0.000000,,2013-09-14 02:52:00,
2013-09-13 23:00:00,49.0,44.0,-100.00,NNW,337,0.0,-999.0,82,-99.99,,,-99.99,0.000000,,2013-09-14 03:00:00,
2013-09-13 23:45:00,49.0,44.0,-100.00,NNW,337,0.0,-999.0,82,-99.99,,,-99.99,0.000000,,2013-09-14 03:45:00,
2013-09-13 23:55:00,49.0,44.0,-100.00,NNW,337,0.0,-999.0,82,-99.99,,,-99.99,0.000000,,2013-09-14 03:55:00,